Nikolaos Gs — V7BI2 — position and weather

sailwx.info

Track history (hours):
 
Tides and Currents Weather Stations Pressure Air Temp Water Temp Dewpoint Dewpoint Depression Visibility Wind Speed Wind Dir Waves Ship Positions

Nikolaos Gs

Last reported at 2017-Aug-23 14:24 UTC. Time now 2017-Nov-20 06:04 UTC.
Position N 47°14' W 005°51'.
Warning: this ship's position is months out of date.

Length 169 m; draft 5.4 m.

Type: Cargo ship. MMSI: 538005146.

Date/timePositionNaut miles runAvg speedWind from/ knotsBaromVisibWave heightAir tempDewpointWater temp
2017-Aug-23 14:24N 47°14' W 005°51'4011.6
2017-Aug-23 10:56N 47°10' W 004°52'712.1
2017-Aug-23 10:22N 47°09' W 004°42'512.2
2017-Aug-23 09:58N 47°08' W 004°35'612.2
2017-Aug-23 09:29N 47°06' W 004°27'712.0
2017-Aug-23 08:55N 47°05' W 004°17'511.7
2017-Aug-23 08:30N 47°05' W 004°10'611.5
2017-Aug-23 07:59N 47°05' W 004°01'611.3
2017-Aug-23 07:28N 47°04' W 003°53'511.3
2017-Aug-23 07:00N 47°03' W 003°45'611.2
2017-Aug-23 06:30N 47°02' W 003°37'611.3
2017-Aug-23 06:00N 47°01' W 003°29'511.0
2017-Aug-23 05:30N 47°01' W 003°21'610.8
2017-Aug-23 05:00N 47°00' W 003°13'510.6
2017-Aug-23 04:30N 47°00' W 003°05'510.6
2017-Aug-23 04:00N 46°60' W 002°57'510.6
2017-Aug-23 03:30N 47°00' W 002°49'510.5
2017-Aug-23 03:00N 47°00' W 002°42'510.5
2017-Aug-23 02:30N 47°02' W 002°35'5 9.8
2017-Aug-23 02:00N 47°04' W 002°28'4 8.4
2017-Aug-23 01:30N 47°07' W 002°23'3 6.1
2017-Aug-23 01:00N 47°09' W 002°20'5 9.5
2017-Aug-23 00:30N 47°13' W 002°17'5 9.2
2017-Aug-23 00:00N 47°16' W 002°12'3 6.6
2017-Aug-22 23:30N 47°18' W 002°08'0 0.1
2017-Aug-22 23:00N 47°18' W 002°08'0 0.0
2017-Aug-22 22:30N 47°18' W 002°08'0 0.0
2017-Aug-22 22:00N 47°18' W 002°08'0 0.0
2017-Aug-22 21:30N 47°18' W 002°08'0 0.0
2017-Aug-22 21:00N 47°18' W 002°08'0 0.0
2017-Aug-22 20:30N 47°18' W 002°08'0 0.0
2017-Aug-22 20:00N 47°18' W 002°08'0 0.0
2017-Aug-22 19:30N 47°18' W 002°08'0 0.0
2017-Aug-22 18:51N 47°18' W 002°08'0 0.0
2017-Aug-22 18:30N 47°18' W 002°08'0 0.0
2017-Aug-22 18:00N 47°18' W 002°08'0 0.0
2017-Aug-22 17:30N 47°18' W 002°08'0 0.0
2017-Aug-22 17:00N 47°18' W 002°08'0 0.0
2017-Aug-22 16:21N 47°18' W 002°08'0 0.0
2017-Aug-22 15:54N 47°18' W 002°08'0 0.0
2017-Aug-22 15:30N 47°18' W 002°08'0 0.0
2017-Aug-22 15:00N 47°18' W 002°08'0 0.0
2017-Aug-22 14:30N 47°18' W 002°08'0 0.0
2017-Aug-22 14:00N 47°18' W 002°08'0 0.0
2017-Aug-22 13:27N 47°18' W 002°08'0 0.0
2017-Aug-22 13:00N 47°18' W 002°08'0 0.0
2017-Aug-22 12:30N 47°18' W 002°08'0 0.0
2017-Aug-22 12:00N 47°18' W 002°08'0 0.0
2017-Aug-22 11:30N 47°18' W 002°08'0 0.0
2017-Aug-22 11:00N 47°18' W 002°08'0 0.0
2017-Aug-22 10:30N 47°18' W 002°08'0 0.0
2017-Aug-22 10:00N 47°18' W 002°08'0 0.0
2017-Aug-22 09:30N 47°18' W 002°08'0 0.0
2017-Aug-22 09:00N 47°18' W 002°08'0 0.0
2017-Aug-22 08:30N 47°18' W 002°08'0 0.0
2017-Aug-22 08:00N 47°18' W 002°08'0 0.0
2017-Aug-22 07:27N 47°18' W 002°08'0 0.0
2017-Aug-22 07:00N 47°18' W 002°08'0 0.0
2017-Aug-22 06:30N 47°18' W 002°08'0 0.0
2017-Aug-22 06:00N 47°18' W 002°08'0 0.6
2017-Aug-22 05:30N 47°18' W 002°07'5 9.2
2017-Aug-22 05:00N 47°17' W 002°01'510.5
2017-Aug-22 04:30N 47°16' W 001°53'4 8.5
2017-Aug-22 04:00N 47°13' W 001°49'3 6.0
2017-Aug-22 03:30N 47°12' W 001°45'3 5.6
2017-Aug-22 03:00N 47°12' W 001°41'2 4.8
2017-Aug-22 02:30N 47°12' W 001°37'1 1.2
2017-Aug-22 02:00N 47°12' W 001°36'0 0.0
2017-Aug-22 01:30N 47°12' W 001°36'0 0.0
2017-Aug-22 01:00N 47°12' W 001°36'0 0.0
2017-Aug-22 00:27N 47°12' W 001°36'0 0.0
2017-Aug-22 00:00N 47°12' W 001°36'0 0.0
2017-Aug-21 23:30N 47°12' W 001°36'0 0.0
2017-Aug-21 23:00N 47°12' W 001°36'0 0.0
2017-Aug-21 22:30N 47°12' W 001°36'0 0.0
2017-Aug-21 22:00N 47°12' W 001°36'0 0.0
2017-Aug-21 21:30N 47°12' W 001°36'0 0.0
2017-Aug-21 20:57N 47°12' W 001°36'0 0.0
2017-Aug-21 20:30N 47°12' W 001°36'0 0.0
2017-Aug-21 20:00N 47°12' W 001°36'0 0.0
2017-Aug-21 19:30N 47°12' W 001°36'0 0.0
2017-Aug-21 19:00N 47°12' W 001°36'0 0.0
2017-Aug-21 18:27N 47°12' W 001°36'0 0.0
2017-Aug-21 18:00N 47°12' W 001°36'0 0.0
2017-Aug-21 17:15N 47°12' W 001°36'0 0.0
2017-Aug-21 16:54N 47°12' W 001°36'0 0.0
2017-Aug-21 16:27N 47°12' W 001°36'0 0.0
2017-Aug-21 15:54N 47°12' W 001°36'0 0.0
2017-Aug-21 15:27N 47°12' W 001°36'0 0.0
2017-Aug-21 15:00N 47°12' W 001°36'0 0.0
2017-Aug-21 14:30N 47°12' W 001°36'0 0.0
2017-Aug-21 14:00N 47°12' W 001°36'0 0.0
2017-Aug-21 13:30N 47°12' W 001°36'0 0.0
2017-Aug-21 13:00N 47°12' W 001°36'0 0.0
2017-Aug-21 12:30N 47°12' W 001°36'0 0.0
2017-Aug-21 12:00N 47°12' W 001°36'0 0.0
2017-Aug-21 11:30N 47°12' W 001°36'0 0.0
2017-Aug-21 11:00N 47°12' W 001°36'0 0.0
2017-Aug-21 10:30N 47°12' W 001°36'0 0.0
2017-Aug-21 09:57N 47°12' W 001°36'0 0.0
2017-Aug-21 09:30N 47°12' W 001°36'0 0.0
2017-Aug-21 09:00N 47°12' W 001°36'0 0.0
2017-Aug-21 08:30N 47°12' W 001°36'0 0.0
2017-Aug-21 08:00N 47°12' W 001°36'0 0.0
2017-Aug-21 07:30N 47°12' W 001°36'0 0.0
2017-Aug-21 07:00N 47°12' W 001°36'0 0.0
2017-Aug-21 06:30N 47°12' W 001°36'0 0.0
2017-Aug-21 06:00N 47°12' W 001°36'0 0.0
2017-Aug-21 05:30N 47°12' W 001°36'0 0.0
2017-Aug-21 05:00N 47°12' W 001°36'0 0.0
2017-Aug-21 04:30N 47°12' W 001°36'0 0.0
2017-Aug-21 03:57N 47°12' W 001°36'0 0.0
2017-Aug-21 03:30N 47°12' W 001°36'0 0.0
2017-Aug-21 03:00N 47°12' W 001°36'0 0.0
2017-Aug-21 02:30N 47°12' W 001°36'0 0.0
2017-Aug-21 02:00N 47°12' W 001°36'0 0.0
2017-Aug-21 01:30N 47°12' W 001°36'0 0.0
2017-Aug-21 01:00N 47°12' W 001°36'0 0.0
2017-Aug-21 00:30N 47°12' W 001°36'0 0.0
2017-Aug-20 23:57N 47°12' W 001°36'0 0.0
2017-Aug-20 23:30N 47°12' W 001°36'0 0.0
2017-Aug-20 23:00N 47°12' W 001°36'0 0.0
2017-Aug-20 22:30N 47°12' W 001°36'0 0.0
2017-Aug-20 22:00N 47°12' W 001°36'0 0.0
2017-Aug-20 21:27N 47°12' W 001°36'0 0.0
2017-Aug-20 20:51N 47°12' W 001°36'0 0.0
2017-Aug-20 20:30N 47°12' W 001°36'0 0.0
2017-Aug-20 20:00N 47°12' W 001°36'0 0.0
2017-Aug-20 19:21N 47°12' W 001°36'0 0.0
2017-Aug-20 18:59N 47°12' W 001°36'0 0.0
2017-Aug-20 18:29N 47°12' W 001°36'0 0.0
2017-Aug-20 17:56N 47°12' W 001°36'0 0.0
2017-Aug-20 17:29N 47°12' W 001°36'0 0.0
2017-Aug-20 16:59N 47°12' W 001°36'0 0.0
2017-Aug-20 16:29N 47°12' W 001°36'0 0.0
2017-Aug-20 15:53N 47°12' W 001°36'0 0.0
2017-Aug-20 15:29N 47°12' W 001°36'0 0.0
2017-Aug-20 14:59N 47°12' W 001°36'0 0.0
2017-Aug-20 14:29N 47°12' W 001°36'0 0.0
2017-Aug-20 13:59N 47°12' W 001°36'0 0.0
2017-Aug-20 13:26N 47°12' W 001°36'0 0.0
2017-Aug-20 12:59N 47°12' W 001°36'0 0.0
2017-Aug-20 12:29N 47°12' W 001°36'0 0.0
2017-Aug-20 11:59N 47°12' W 001°36'0 0.0
2017-Aug-20 11:29N 47°12' W 001°36'0 0.0
2017-Aug-20 10:59N 47°12' W 001°36'0 0.0
2017-Aug-20 10:29N 47°12' W 001°36'0 0.0
2017-Aug-20 09:59N 47°12' W 001°36'0 0.0
2017-Aug-20 09:29N 47°12' W 001°36'0 0.0
2017-Aug-20 08:59N 47°12' W 001°36'0 0.0
2017-Aug-20 08:29N 47°12' W 001°36'0 0.0
2017-Aug-20 07:59N 47°12' W 001°36'0 0.0
2017-Aug-20 07:29N 47°12' W 001°36'0 0.0
2017-Aug-20 06:59N 47°12' W 001°36'0 0.0
2017-Aug-20 06:30N 47°12' W 001°36'0 0.0
2017-Aug-20 05:59N 47°12' W 001°36'0 0.0
2017-Aug-20 05:29N 47°12' W 001°36'0 0.0
2017-Aug-20 04:59N 47°12' W 001°36'0 0.0
2017-Aug-20 04:29N 47°12' W 001°36'0 0.0
2017-Aug-20 03:59N 47°12' W 001°36'0 0.0
2017-Aug-20 03:29N 47°12' W 001°36'0 0.0
2017-Aug-20 02:59N 47°12' W 001°36'0 0.0
2017-Aug-20 02:29N 47°12' W 001°36'0 0.0
2017-Aug-20 01:59N 47°12' W 001°36'0 0.0
2017-Aug-20 01:29N 47°12' W 001°36'0 0.0
2017-Aug-20 00:59N 47°12' W 001°36'0 0.0
2017-Aug-20 00:29N 47°12' W 001°36'0 0.0
2017-Aug-19 23:59N 47°12' W 001°36'0 0.0
2017-Aug-19 23:29N 47°12' W 001°36'0 0.0
2017-Aug-19 22:59N 47°12' W 001°36'0 0.0
2017-Aug-19 22:26N 47°12' W 001°36'0 0.0
2017-Aug-19 21:59N 47°12' W 001°36'0 0.0
2017-Aug-19 21:29N 47°12' W 001°36'0 0.0
2017-Aug-19 20:59N 47°12' W 001°36'0 0.0
2017-Aug-19 20:29N 47°12' W 001°36'0 0.0
2017-Aug-19 19:59N 47°12' W 001°36'0 0.0
2017-Aug-19 19:29N 47°12' W 001°36'0 0.0
2017-Aug-19 18:59N 47°12' W 001°36'0 0.0
2017-Aug-19 18:29N 47°12' W 001°36'0 0.0
2017-Aug-19 17:59N 47°12' W 001°36'0 0.0
2017-Aug-19 17:29N 47°12' W 001°36'0 0.0
2017-Aug-19 16:59N 47°12' W 001°36'0 0.0
2017-Aug-19 16:29N 47°12' W 001°36'0 0.0
2017-Aug-19 15:47N 47°12' W 001°36'0 0.0
2017-Aug-19 15:29N 47°12' W 001°36'0 0.0
2017-Aug-19 14:53N 47°12' W 001°36'0 0.0
2017-Aug-19 13:59N 47°12' W 001°36'0 0.0
2017-Aug-19 13:26N 47°12' W 001°36'0 0.0
2017-Aug-19 12:59N 47°12' W 001°36'0 0.0
2017-Aug-19 12:29N 47°12' W 001°36'0 0.0
2017-Aug-19 11:59N 47°12' W 001°36'0 0.0
2017-Aug-19 11:29N 47°12' W 001°36'0 0.0
2017-Aug-19 10:59N 47°12' W 001°36'0 0.0
2017-Aug-19 10:29N 47°12' W 001°36'0 0.0
2017-Aug-19 09:59N 47°12' W 001°36'0 0.0
2017-Aug-19 09:29N 47°12' W 001°36'0 0.0
2017-Aug-19 08:53N 47°12' W 001°36'0 0.0
2017-Aug-19 08:29N 47°12' W 001°36'0 0.0
2017-Aug-19 07:59N 47°12' W 001°36'0 0.0
2017-Aug-19 07:29N 47°12' W 001°36'0 0.0
2017-Aug-19 06:58N 47°12' W 001°36'0 0.0
2017-Aug-19 06:28N 47°12' W 001°36'0 0.0
2017-Aug-19 05:58N 47°12' W 001°36'0 0.0
2017-Aug-19 05:28N 47°12' W 001°36'0 0.0
2017-Aug-19 04:58N 47°12' W 001°36'0 0.0
2017-Aug-19 04:28N 47°12' W 001°36'0 0.0
2017-Aug-19 03:55N 47°12' W 001°36'0 0.0
2017-Aug-19 03:28N 47°12' W 001°36'0 0.0
2017-Aug-19 02:49N 47°12' W 001°36'0 0.0
2017-Aug-19 02:25N 47°12' W 001°36'0 0.0
2017-Aug-19 01:55N 47°12' W 001°36'0 0.0
2017-Aug-19 01:28N 47°12' W 001°36'0 0.0
2017-Aug-19 00:58N 47°12' W 001°36'0 0.0
2017-Aug-19 00:28N 47°12' W 001°36'0 0.0
2017-Aug-18 23:58N 47°12' W 001°36'0 0.0
2017-Aug-18 23:28N 47°12' W 001°36'0 0.0
2017-Aug-18 22:58N 47°12' W 001°36'0 0.0
2017-Aug-18 22:28N 47°12' W 001°36'0 0.0
2017-Aug-18 21:58N 47°12' W 001°36'0 0.0
2017-Aug-18 21:28N 47°12' W 001°36'0 0.0
2017-Aug-18 20:58N 47°12' W 001°36'0 0.0
2017-Aug-18 20:28N 47°12' W 001°36'0 0.0
2017-Aug-18 19:58N 47°12' W 001°36'0 0.0
2017-Aug-18 19:28N 47°12' W 001°36'0 0.0
2017-Aug-18 18:49N 47°12' W 001°36'0 0.0
2017-Aug-18 18:22N 47°12' W 001°36'0 0.0
2017-Aug-18 17:55N 47°12' W 001°36'0 0.0
2017-Aug-18 17:28N 47°12' W 001°36'0 0.0
2017-Aug-18 16:58N 47°12' W 001°36'0 0.0
2017-Aug-18 16:16N 47°12' W 001°36'0 0.0
2017-Aug-18 15:55N 47°12' W 001°36'0 0.0
2017-Aug-18 15:28N 47°12' W 001°36'0 0.0
2017-Aug-18 14:55N 47°12' W 001°36'0 0.6
2017-Aug-18 14:30N 47°12' W 001°36'5 4.7
2017-Aug-18 13:31N 47°12' W 001°43'510.8
2017-Aug-18 13:01N 47°14' W 001°50'510.8
2017-Aug-18 12:30N 47°17' W 001°57'612.3
2017-Aug-18 11:59N 47°18' W 002°07'612.0
2017-Aug-18 11:30N 47°15' W 002°14'611.5
2017-Aug-18 11:00N 47°10' W 002°18'4 8.7
2017-Aug-18 10:31N 47°07' W 002°22'3 5.4
2017-Aug-18 10:00N 47°06' W 002°26'1 0.9
2017-Aug-18 09:09N 47°07' W 002°26'0 0.0
2017-Aug-18 08:57N 47°07' W 002°26'0 0.0
2017-Aug-18 08:30N 47°07' W 002°26'0 0.0
2017-Aug-18 08:00N 47°07' W 002°26'0 0.0
2017-Aug-18 07:27N 47°07' W 002°26'0 0.0
2017-Aug-18 07:00N 47°07' W 002°26'0 0.0
2017-Aug-18 06:30N 47°07' W 002°26'0 0.1
2017-Aug-18 06:00N 47°07' W 002°26'0 0.4
2017-Aug-18 05:30N 47°07' W 002°27'1 2.6
2017-Aug-18 05:00N 47°05' W 002°27'2 4.6
2017-Aug-18 04:30N 47°03' W 002°29'4 8.3
2017-Aug-18 04:00N 47°01' W 002°34'510.5
2017-Aug-18 03:30N 46°59' W 002°41'810.8
2017-Aug-18 02:45N 46°54' W 002°51'311.7
2017-Aug-18 02:29N 46°52' W 002°54'50911.5
2017-Aug-16 06:12N 40°02' W 009°49'212.9
2017-Aug-16 06:00N 39°59' W 009°49'612.9
2017-Aug-16 05:30N 39°53' W 009°49'712.8
2017-Aug-16 05:00N 39°46' W 009°50'612.6
2017-Aug-16 04:30N 39°40' W 009°50'612.6
2017-Aug-16 04:00N 39°34' W 009°50'612.2
2017-Aug-16 03:30N 39°28' W 009°50'612.2
2017-Aug-16 03:00N 39°22' W 009°51'612.4
2017-Aug-16 02:30N 39°15' W 009°51'612.2
2017-Aug-16 02:00N 39°09' W 009°51'612.4
2017-Aug-16 01:30N 39°03' W 009°51'612.3
2017-Aug-16 01:01N 38°57' W 009°51'612.2
2017-Aug-16 00:31N 38°51' W 009°51'612.0
2017-Aug-16 00:01N 38°45' W 009°51'612.2
2017-Aug-15 23:31N 38°39' W 009°50'612.3
2017-Aug-15 23:00N 38°33' W 009°48'612.0
2017-Aug-15 22:30N 38°27' W 009°46'612.0
2017-Aug-15 22:01N 38°21' W 009°45'612.1
2017-Aug-15 21:30N 38°15' W 009°43'611.8
2017-Aug-15 21:01N 38°10' W 009°41'611.7
2017-Aug-15 20:31N 38°04' W 009°39'611.4
2017-Aug-15 20:01N 37°58' W 009°37'511.0
2017-Aug-15 19:31N 37°53' W 009°36'510.6
2017-Aug-15 19:01N 37°48' W 009°35'510.6
2017-Aug-15 18:31N 37°43' W 009°34'611.0
2017-Aug-15 18:00N 37°37' W 009°32'611.4
2017-Aug-15 17:31N 37°32' W 009°31'611.4
2017-Aug-15 17:01N 37°26' W 009°29'611.3
2017-Aug-15 16:31N 37°21' W 009°27'611.8
2017-Aug-15 16:01N 37°15' W 009°25'611.4
2017-Aug-15 15:30N 37°09' W 009°23'611.6
2017-Aug-15 15:01N 37°04' W 009°22'611.8
2017-Aug-15 14:31N 36°58' W 009°20'611.2
2017-Aug-15 14:01N 36°53' W 009°19'611.1
2017-Aug-15 13:30N 36°48' W 009°14'611.2
2017-Aug-15 13:00N 36°44' W 009°09'611.3
2017-Aug-15 12:30N 36°43' W 009°02'611.6
2017-Aug-15 12:01N 36°41' W 008°55'611.6
2017-Aug-15 11:31N 36°39' W 008°49'611.8
2017-Aug-15 11:01N 36°37' W 008°42'612.0
2017-Aug-15 10:31N 36°35' W 008°35'611.9
2017-Aug-15 10:01N 36°33' W 008°28'612.0
2017-Aug-15 09:31N 36°31' W 008°21'612.3
2017-Aug-15 09:01N 36°29' W 008°13'612.3
2017-Aug-15 08:31N 36°28' W 008°06'1012.3
2017-Aug-15 07:43N 36°25' W 007°54'312.4
2017-Aug-15 07:27N 36°25' W 007°50'512.5
2017-Aug-15 07:01N 36°23' W 007°44'10612.4
2017-Aug-14 22:27N 35°58' W 005°36'613.4
2017-Aug-14 21:59N 36°00' W 005°29'611.7
2017-Aug-14 21:30N 36°04' W 005°24'4 6.5
2017-Aug-14 20:51N 36°08' W 005°22'0 0.0
2017-Aug-14 15:07N 36°08' W 005°22'0 0.0
2017-Aug-14 13:34N 36°08' W 005°22'0 0.1
2017-Aug-14 13:10N 36°08' W 005°22'0 0.1
2017-Aug-14 12:58N 36°08' W 005°22'0 0.0
2017-Aug-14 12:01N 36°08' W 005°22'0 0.2
2017-Aug-14 11:58N 36°08' W 005°22'0 0.0
2017-Aug-14 11:28N 36°08' W 005°22'0 0.0
2017-Aug-14 10:55N 36°08' W 005°22'0 0.0
2017-Aug-14 10:25N 36°08' W 005°22'0 0.1
2017-Aug-14 09:55N 36°08' W 005°22'0 0.0
2017-Aug-14 09:28N 36°08' W 005°22'2 2.1
2017-Aug-14 08:34N 36°06' W 005°22'1 4.8
2017-Aug-14 08:16N 36°04' W 005°21'1 1.9
2017-Aug-14 07:54N 36°04' W 005°20'2 4.3
2017-Aug-14 07:30N 36°04' W 005°19'2 4.2
2017-Aug-14 07:00N 36°03' W 005°16'1 1.5
2017-Aug-14 06:30N 36°04' W 005°15'1 2.1
2017-Aug-14 06:00N 36°04' W 005°14'1 2.9
2017-Aug-14 05:30N 36°04' W 005°12'17111.6
2017-Aug-13 14:51N 36°30' W 001°43'  
Track history (hours):
 
Tides and Currents Weather Stations Pressure Air Temp Water Temp Dewpoint Dewpoint Depression Visibility Wind Speed Wind Dir Waves Ship Positions

Nikolaos Gs

Last reported at 2017-Aug-23 14:24 UTC. Time now 2017-Nov-20 06:04 UTC.
Position N 47°14' W 005°51'.
Warning: this ship's position is months out of date.

Length 169 m; draft 5.4 m.

Type: Cargo ship. MMSI: 538005146.

Date/timePositionNaut miles runAvg speedWind from/ knotsBaromVisibWave heightAir tempDewpointWater temp
2017-Aug-23 14:24N 47°14' W 005°51'4011.6
2017-Aug-23 10:56N 47°10' W 004°52'712.1
2017-Aug-23 10:22N 47°09' W 004°42'512.2
2017-Aug-23 09:58N 47°08' W 004°35'612.2
2017-Aug-23 09:29N 47°06' W 004°27'712.0
2017-Aug-23 08:55N 47°05' W 004°17'511.7
2017-Aug-23 08:30N 47°05' W 004°10'611.5
2017-Aug-23 07:59N 47°05' W 004°01'611.3
2017-Aug-23 07:28N 47°04' W 003°53'511.3
2017-Aug-23 07:00N 47°03' W 003°45'611.2
2017-Aug-23 06:30N 47°02' W 003°37'611.3
2017-Aug-23 06:00N 47°01' W 003°29'511.0
2017-Aug-23 05:30N 47°01' W 003°21'610.8
2017-Aug-23 05:00N 47°00' W 003°13'510.6
2017-Aug-23 04:30N 47°00' W 003°05'510.6
2017-Aug-23 04:00N 46°60' W 002°57'510.6
2017-Aug-23 03:30N 47°00' W 002°49'510.5
2017-Aug-23 03:00N 47°00' W 002°42'510.5
2017-Aug-23 02:30N 47°02' W 002°35'5 9.8
2017-Aug-23 02:00N 47°04' W 002°28'4 8.4
2017-Aug-23 01:30N 47°07' W 002°23'3 6.1
2017-Aug-23 01:00N 47°09' W 002°20'5 9.5
2017-Aug-23 00:30N 47°13' W 002°17'5 9.2
2017-Aug-23 00:00N 47°16' W 002°12'3 6.6
2017-Aug-22 23:30N 47°18' W 002°08'0 0.1
2017-Aug-22 23:00N 47°18' W 002°08'0 0.0
2017-Aug-22 22:30N 47°18' W 002°08'0 0.0
2017-Aug-22 22:00N 47°18' W 002°08'0 0.0
2017-Aug-22 21:30N 47°18' W 002°08'0 0.0
2017-Aug-22 21:00N 47°18' W 002°08'0 0.0
2017-Aug-22 20:30N 47°18' W 002°08'0 0.0
2017-Aug-22 20:00N 47°18' W 002°08'0 0.0
2017-Aug-22 19:30N 47°18' W 002°08'0 0.0
2017-Aug-22 18:51N 47°18' W 002°08'0 0.0
2017-Aug-22 18:30N 47°18' W 002°08'0 0.0
2017-Aug-22 18:00N 47°18' W 002°08'0 0.0
2017-Aug-22 17:30N 47°18' W 002°08'0 0.0
2017-Aug-22 17:00N 47°18' W 002°08'0 0.0
2017-Aug-22 16:21N 47°18' W 002°08'0 0.0
2017-Aug-22 15:54N 47°18' W 002°08'0 0.0
2017-Aug-22 15:30N 47°18' W 002°08'0 0.0
2017-Aug-22 15:00N 47°18' W 002°08'0 0.0
2017-Aug-22 14:30N 47°18' W 002°08'0 0.0
2017-Aug-22 14:00N 47°18' W 002°08'0 0.0
2017-Aug-22 13:27N 47°18' W 002°08'0 0.0
2017-Aug-22 13:00N 47°18' W 002°08'0 0.0
2017-Aug-22 12:30N 47°18' W 002°08'0 0.0
2017-Aug-22 12:00N 47°18' W 002°08'0 0.0
2017-Aug-22 11:30N 47°18' W 002°08'0 0.0
2017-Aug-22 11:00N 47°18' W 002°08'0 0.0
2017-Aug-22 10:30N 47°18' W 002°08'0 0.0
2017-Aug-22 10:00N 47°18' W 002°08'0 0.0
2017-Aug-22 09:30N 47°18' W 002°08'0 0.0
2017-Aug-22 09:00N 47°18' W 002°08'0 0.0
2017-Aug-22 08:30N 47°18' W 002°08'0 0.0
2017-Aug-22 08:00N 47°18' W 002°08'0 0.0
2017-Aug-22 07:27N 47°18' W 002°08'0 0.0
2017-Aug-22 07:00N 47°18' W 002°08'0 0.0
2017-Aug-22 06:30N 47°18' W 002°08'0 0.0
2017-Aug-22 06:00N 47°18' W 002°08'0 0.6
2017-Aug-22 05:30N 47°18' W 002°07'5 9.2
2017-Aug-22 05:00N 47°17' W 002°01'510.5
2017-Aug-22 04:30N 47°16' W 001°53'4 8.5
2017-Aug-22 04:00N 47°13' W 001°49'3 6.0
2017-Aug-22 03:30N 47°12' W 001°45'3 5.6
2017-Aug-22 03:00N 47°12' W 001°41'2 4.8
2017-Aug-22 02:30N 47°12' W 001°37'1 1.2
2017-Aug-22 02:00N 47°12' W 001°36'0 0.0
2017-Aug-22 01:30N 47°12' W 001°36'0 0.0
2017-Aug-22 01:00N 47°12' W 001°36'0 0.0
2017-Aug-22 00:27N 47°12' W 001°36'0 0.0
2017-Aug-22 00:00N 47°12' W 001°36'0 0.0
2017-Aug-21 23:30N 47°12' W 001°36'0 0.0
2017-Aug-21 23:00N 47°12' W 001°36'0 0.0
2017-Aug-21 22:30N 47°12' W 001°36'0 0.0
2017-Aug-21 22:00N 47°12' W 001°36'0 0.0
2017-Aug-21 21:30N 47°12' W 001°36'0 0.0
2017-Aug-21 20:57N 47°12' W 001°36'0 0.0
2017-Aug-21 20:30N 47°12' W 001°36'0 0.0
2017-Aug-21 20:00N 47°12' W 001°36'0 0.0
2017-Aug-21 19:30N 47°12' W 001°36'0 0.0
2017-Aug-21 19:00N 47°12' W 001°36'0 0.0
2017-Aug-21 18:27N 47°12' W 001°36'0 0.0
2017-Aug-21 18:00N 47°12' W 001°36'0 0.0
2017-Aug-21 17:15N 47°12' W 001°36'0 0.0
2017-Aug-21 16:54N 47°12' W 001°36'0 0.0
2017-Aug-21 16:27N 47°12' W 001°36'0 0.0
2017-Aug-21 15:54N 47°12' W 001°36'0 0.0
2017-Aug-21 15:27N 47°12' W 001°36'0 0.0
2017-Aug-21 15:00N 47°12' W 001°36'0 0.0
2017-Aug-21 14:30N 47°12' W 001°36'0 0.0
2017-Aug-21 14:00N 47°12' W 001°36'0 0.0
2017-Aug-21 13:30N 47°12' W 001°36'0 0.0
2017-Aug-21 13:00N 47°12' W 001°36'0 0.0
2017-Aug-21 12:30N 47°12' W 001°36'0 0.0
2017-Aug-21 12:00N 47°12' W 001°36'0 0.0
2017-Aug-21 11:30N 47°12' W 001°36'0 0.0
2017-Aug-21 11:00N 47°12' W 001°36'0 0.0
2017-Aug-21 10:30N 47°12' W 001°36'0 0.0
2017-Aug-21 09:57N 47°12' W 001°36'0 0.0
2017-Aug-21 09:30N 47°12' W 001°36'0 0.0
2017-Aug-21 09:00N 47°12' W 001°36'0 0.0
2017-Aug-21 08:30N 47°12' W 001°36'0 0.0
2017-Aug-21 08:00N 47°12' W 001°36'0 0.0
2017-Aug-21 07:30N 47°12' W 001°36'0 0.0
2017-Aug-21 07:00N 47°12' W 001°36'0 0.0
2017-Aug-21 06:30N 47°12' W 001°36'0 0.0
2017-Aug-21 06:00N 47°12' W 001°36'0 0.0
2017-Aug-21 05:30N 47°12' W 001°36'0 0.0
2017-Aug-21 05:00N 47°12' W 001°36'0 0.0
2017-Aug-21 04:30N 47°12' W 001°36'0 0.0
2017-Aug-21 03:57N 47°12' W 001°36'0 0.0
2017-Aug-21 03:30N 47°12' W 001°36'0 0.0
2017-Aug-21 03:00N 47°12' W 001°36'0 0.0
2017-Aug-21 02:30N 47°12' W 001°36'0 0.0
2017-Aug-21 02:00N 47°12' W 001°36'0 0.0
2017-Aug-21 01:30N 47°12' W 001°36'0 0.0
2017-Aug-21 01:00N 47°12' W 001°36'0 0.0
2017-Aug-21 00:30N 47°12' W 001°36'0 0.0
2017-Aug-20 23:57N 47°12' W 001°36'0 0.0
2017-Aug-20 23:30N 47°12' W 001°36'0 0.0
2017-Aug-20 23:00N 47°12' W 001°36'0 0.0
2017-Aug-20 22:30N 47°12' W 001°36'0 0.0
2017-Aug-20 22:00N 47°12' W 001°36'0 0.0
2017-Aug-20 21:27N 47°12' W 001°36'0 0.0
2017-Aug-20 20:51N 47°12' W 001°36'0 0.0
2017-Aug-20 20:30N 47°12' W 001°36'0 0.0
2017-Aug-20 20:00N 47°12' W 001°36'0 0.0
2017-Aug-20 19:21N 47°12' W 001°36'0 0.0
2017-Aug-20 18:59N 47°12' W 001°36'0 0.0
2017-Aug-20 18:29N 47°12' W 001°36'0 0.0
2017-Aug-20 17:56N 47°12' W 001°36'0 0.0
2017-Aug-20 17:29N 47°12' W 001°36'0 0.0
2017-Aug-20 16:59N 47°12' W 001°36'0 0.0
2017-Aug-20 16:29N 47°12' W 001°36'0 0.0
2017-Aug-20 15:53N 47°12' W 001°36'0 0.0
2017-Aug-20 15:29N 47°12' W 001°36'0 0.0
2017-Aug-20 14:59N 47°12' W 001°36'0 0.0
2017-Aug-20 14:29N 47°12' W 001°36'0 0.0
2017-Aug-20 13:59N 47°12' W 001°36'0 0.0
2017-Aug-20 13:26N 47°12' W 001°36'0 0.0
2017-Aug-20 12:59N 47°12' W 001°36'0 0.0
2017-Aug-20 12:29N 47°12' W 001°36'0 0.0
2017-Aug-20 11:59N 47°12' W 001°36'0 0.0
2017-Aug-20 11:29N 47°12' W 001°36'0 0.0
2017-Aug-20 10:59N 47°12' W 001°36'0 0.0
2017-Aug-20 10:29N 47°12' W 001°36'0 0.0
2017-Aug-20 09:59N 47°12' W 001°36'0 0.0
2017-Aug-20 09:29N 47°12' W 001°36'0 0.0
2017-Aug-20 08:59N 47°12' W 001°36'0 0.0
2017-Aug-20 08:29N 47°12' W 001°36'0 0.0
2017-Aug-20 07:59N 47°12' W 001°36'0 0.0
2017-Aug-20 07:29N 47°12' W 001°36'0 0.0
2017-Aug-20 06:59N 47°12' W 001°36'0 0.0
2017-Aug-20 06:30N 47°12' W 001°36'0 0.0
2017-Aug-20 05:59N 47°12' W 001°36'0 0.0
2017-Aug-20 05:29N 47°12' W 001°36'0 0.0
2017-Aug-20 04:59N 47°12' W 001°36'0 0.0
2017-Aug-20 04:29N 47°12' W 001°36'0 0.0
2017-Aug-20 03:59N 47°12' W 001°36'0 0.0
2017-Aug-20 03:29N 47°12' W 001°36'0 0.0
2017-Aug-20 02:59N 47°12' W 001°36'0 0.0
2017-Aug-20 02:29N 47°12' W 001°36'0 0.0
2017-Aug-20 01:59N 47°12' W 001°36'0 0.0
2017-Aug-20 01:29N 47°12' W 001°36'0 0.0
2017-Aug-20 00:59N 47°12' W 001°36'0 0.0
2017-Aug-20 00:29N 47°12' W 001°36'0 0.0
2017-Aug-19 23:59N 47°12' W 001°36'0 0.0
2017-Aug-19 23:29N 47°12' W 001°36'0 0.0
2017-Aug-19 22:59N 47°12' W 001°36'0 0.0
2017-Aug-19 22:26N 47°12' W 001°36'0 0.0
2017-Aug-19 21:59N 47°12' W 001°36'0 0.0
2017-Aug-19 21:29N 47°12' W 001°36'0 0.0
2017-Aug-19 20:59N 47°12' W 001°36'0 0.0
2017-Aug-19 20:29N 47°12' W 001°36'0 0.0
2017-Aug-19 19:59N 47°12' W 001°36'0 0.0
2017-Aug-19 19:29N 47°12' W 001°36'0 0.0
2017-Aug-19 18:59N 47°12' W 001°36'0 0.0
2017-Aug-19 18:29N 47°12' W 001°36'0 0.0
2017-Aug-19 17:59N 47°12' W 001°36'0 0.0
2017-Aug-19 17:29N 47°12' W 001°36'0 0.0
2017-Aug-19 16:59N 47°12' W 001°36'0 0.0
2017-Aug-19 16:29N 47°12' W 001°36'0 0.0
2017-Aug-19 15:47N 47°12' W 001°36'0 0.0
2017-Aug-19 15:29N 47°12' W 001°36'0 0.0
2017-Aug-19 14:53N 47°12' W 001°36'0 0.0
2017-Aug-19 13:59N 47°12' W 001°36'0 0.0
2017-Aug-19 13:26N 47°12' W 001°36'0 0.0
2017-Aug-19 12:59N 47°12' W 001°36'0 0.0
2017-Aug-19 12:29N 47°12' W 001°36'0 0.0
2017-Aug-19 11:59N 47°12' W 001°36'0 0.0
2017-Aug-19 11:29N 47°12' W 001°36'0 0.0
2017-Aug-19 10:59N 47°12' W 001°36'0 0.0
2017-Aug-19 10:29N 47°12' W 001°36'0 0.0
2017-Aug-19 09:59N 47°12' W 001°36'0 0.0
2017-Aug-19 09:29N 47°12' W 001°36'0 0.0
2017-Aug-19 08:53N 47°12' W 001°36'0 0.0
2017-Aug-19 08:29N 47°12' W 001°36'0 0.0
2017-Aug-19 07:59N 47°12' W 001°36'0 0.0
2017-Aug-19 07:29N 47°12' W 001°36'0 0.0
2017-Aug-19 06:58N 47°12' W 001°36'0 0.0
2017-Aug-19 06:28N 47°12' W 001°36'0 0.0
2017-Aug-19 05:58N 47°12' W 001°36'0 0.0
2017-Aug-19 05:28N 47°12' W 001°36'0 0.0
2017-Aug-19 04:58N 47°12' W 001°36'0 0.0
2017-Aug-19 04:28N 47°12' W 001°36'0 0.0
2017-Aug-19 03:55N 47°12' W 001°36'0 0.0
2017-Aug-19 03:28N 47°12' W 001°36'0 0.0
2017-Aug-19 02:49N 47°12' W 001°36'0 0.0
2017-Aug-19 02:25N 47°12' W 001°36'0 0.0
2017-Aug-19 01:55N 47°12' W 001°36'0 0.0
2017-Aug-19 01:28N 47°12' W 001°36'0 0.0
2017-Aug-19 00:58N 47°12' W 001°36'0 0.0
2017-Aug-19 00:28N 47°12' W 001°36'0 0.0
2017-Aug-18 23:58N 47°12' W 001°36'0 0.0
2017-Aug-18 23:28N 47°12' W 001°36'0 0.0
2017-Aug-18 22:58N 47°12' W 001°36'0 0.0
2017-Aug-18 22:28N 47°12' W 001°36'0 0.0
2017-Aug-18 21:58N 47°12' W 001°36'0 0.0
2017-Aug-18 21:28N 47°12' W 001°36'0 0.0
2017-Aug-18 20:58N 47°12' W 001°36'0 0.0
2017-Aug-18 20:28N 47°12' W 001°36'0 0.0
2017-Aug-18 19:58N 47°12' W 001°36'0 0.0
2017-Aug-18 19:28N 47°12' W 001°36'0 0.0
2017-Aug-18 18:49N 47°12' W 001°36'0 0.0
2017-Aug-18 18:22N 47°12' W 001°36'0 0.0
2017-Aug-18 17:55N 47°12' W 001°36'0 0.0
2017-Aug-18 17:28N 47°12' W 001°36'0 0.0
2017-Aug-18 16:58N 47°12' W 001°36'0 0.0
2017-Aug-18 16:16N 47°12' W 001°36'0 0.0
2017-Aug-18 15:55N 47°12' W 001°36'0 0.0
2017-Aug-18 15:28N 47°12' W 001°36'0 0.0
2017-Aug-18 14:55N 47°12' W 001°36'0 0.6
2017-Aug-18 14:30N 47°12' W 001°36'5 4.7
2017-Aug-18 13:31N 47°12' W 001°43'510.8
2017-Aug-18 13:01N 47°14' W 001°50'510.8
2017-Aug-18 12:30N 47°17' W 001°57'612.3
2017-Aug-18 11:59N 47°18' W 002°07'612.0
2017-Aug-18 11:30N 47°15' W 002°14'611.5
2017-Aug-18 11:00N 47°10' W 002°18'4 8.7
2017-Aug-18 10:31N 47°07' W 002°22'3 5.4
2017-Aug-18 10:00N 47°06' W 002°26'1 0.9
2017-Aug-18 09:09N 47°07' W 002°26'0 0.0
2017-Aug-18 08:57N 47°07' W 002°26'0 0.0
2017-Aug-18 08:30N 47°07' W 002°26'0 0.0
2017-Aug-18 08:00N 47°07' W 002°26'0 0.0
2017-Aug-18 07:27N 47°07' W 002°26'0 0.0
2017-Aug-18 07:00N 47°07' W 002°26'0 0.0
2017-Aug-18 06:30N 47°07' W 002°26'0 0.1
2017-Aug-18 06:00N 47°07' W 002°26'0 0.4
2017-Aug-18 05:30N 47°07' W 002°27'1 2.6
2017-Aug-18 05:00N 47°05' W 002°27'2 4.6
2017-Aug-18 04:30N 47°03' W 002°29'4 8.3
2017-Aug-18 04:00N 47°01' W 002°34'510.5
2017-Aug-18 03:30N 46°59' W 002°41'810.8
2017-Aug-18 02:45N 46°54' W 002°51'311.7
2017-Aug-18 02:29N 46°52' W 002°54'50911.5
2017-Aug-16 06:12N 40°02' W 009°49'212.9
2017-Aug-16 06:00N 39°59' W 009°49'612.9
2017-Aug-16 05:30N 39°53' W 009°49'712.8
2017-Aug-16 05:00N 39°46' W 009°50'612.6
2017-Aug-16 04:30N 39°40' W 009°50'612.6
2017-Aug-16 04:00N 39°34' W 009°50'612.2
2017-Aug-16 03:30N 39°28' W 009°50'612.2
2017-Aug-16 03:00N 39°22' W 009°51'612.4
2017-Aug-16 02:30N 39°15' W 009°51'612.2
2017-Aug-16 02:00N 39°09' W 009°51'612.4
2017-Aug-16 01:30N 39°03' W 009°51'612.3
2017-Aug-16 01:01N 38°57' W 009°51'612.2
2017-Aug-16 00:31N 38°51' W 009°51'612.0
2017-Aug-16 00:01N 38°45' W 009°51'612.2
2017-Aug-15 23:31N 38°39' W 009°50'612.3
2017-Aug-15 23:00N 38°33' W 009°48'612.0
2017-Aug-15 22:30N 38°27' W 009°46'612.0
2017-Aug-15 22:01N 38°21' W 009°45'612.1
2017-Aug-15 21:30N 38°15' W 009°43'611.8
2017-Aug-15 21:01N 38°10' W 009°41'611.7
2017-Aug-15 20:31N 38°04' W 009°39'611.4
2017-Aug-15 20:01N 37°58' W 009°37'511.0
2017-Aug-15 19:31N 37°53' W 009°36'510.6
2017-Aug-15 19:01N 37°48' W 009°35'510.6
2017-Aug-15 18:31N 37°43' W 009°34'611.0
2017-Aug-15 18:00N 37°37' W 009°32'611.4
2017-Aug-15 17:31N 37°32' W 009°31'611.4
2017-Aug-15 17:01N 37°26' W 009°29'611.3
2017-Aug-15 16:31N 37°21' W 009°27'611.8
2017-Aug-15 16:01N 37°15' W 009°25'611.4
2017-Aug-15 15:30N 37°09' W 009°23'611.6
2017-Aug-15 15:01N 37°04' W 009°22'611.8
2017-Aug-15 14:31N 36°58' W 009°20'611.2
2017-Aug-15 14:01N 36°53' W 009°19'611.1
2017-Aug-15 13:30N 36°48' W 009°14'611.2
2017-Aug-15 13:00N 36°44' W 009°09'611.3
2017-Aug-15 12:30N 36°43' W 009°02'611.6
2017-Aug-15 12:01N 36°41' W 008°55'611.6
2017-Aug-15 11:31N 36°39' W 008°49'611.8
2017-Aug-15 11:01N 36°37' W 008°42'612.0
2017-Aug-15 10:31N 36°35' W 008°35'611.9
2017-Aug-15 10:01N 36°33' W 008°28'612.0
2017-Aug-15 09:31N 36°31' W 008°21'612.3
2017-Aug-15 09:01N 36°29' W 008°13'612.3
2017-Aug-15 08:31N 36°28' W 008°06'1012.3
2017-Aug-15 07:43N 36°25' W 007°54'312.4
2017-Aug-15 07:27N 36°25' W 007°50'512.5
2017-Aug-15 07:01N 36°23' W 007°44'10612.4
2017-Aug-14 22:27N 35°58' W 005°36'613.4
2017-Aug-14 21:59N 36°00' W 005°29'611.7
2017-Aug-14 21:30N 36°04' W 005°24'4 6.5
2017-Aug-14 20:51N 36°08' W 005°22'0 0.0
2017-Aug-14 15:07N 36°08' W 005°22'0 0.0
2017-Aug-14 13:34N 36°08' W 005°22'0 0.1
2017-Aug-14 13:10N 36°08' W 005°22'0 0.1
2017-Aug-14 12:58N 36°08' W 005°22'0 0.0
2017-Aug-14 12:01N 36°08' W 005°22'0 0.2
2017-Aug-14 11:58N 36°08' W 005°22'0 0.0
2017-Aug-14 11:28N 36°08' W 005°22'0 0.0
2017-Aug-14 10:55N 36°08' W 005°22'0 0.0
2017-Aug-14 10:25N 36°08' W 005°22'0 0.1
2017-Aug-14 09:55N 36°08' W 005°22'0 0.0
2017-Aug-14 09:28N 36°08' W 005°22'2 2.1
2017-Aug-14 08:34N 36°06' W 005°22'1 4.8
2017-Aug-14 08:16N 36°04' W 005°21'1 1.9
2017-Aug-14 07:54N 36°04' W 005°20'2 4.3
2017-Aug-14 07:30N 36°04' W 005°19'2 4.2
2017-Aug-14 07:00N 36°03' W 005°16'1 1.5
2017-Aug-14 06:30N 36°04' W 005°15'1 2.1
2017-Aug-14 06:00N 36°04' W 005°14'1 2.9
2017-Aug-14 05:30N 36°04' W 005°12'17111.6
2017-Aug-13 14:51N 36°30' W 001°43'  

Dump ship's entire track history